sensor_id;sensor_type;location;lat;lon;timestamp;pressure;altitude;pressure_sealevel;temperature;humidity
12624;BME280;6377;42.836;23.998;2023-03-14T00:00:52;95786.03;;;2.79;100.00
12624;BME280;6377;42.836;23.998;2023-03-14T00:03:19;95785.28;;;2.68;100.00
12624;BME280;6377;42.836;23.998;2023-03-14T00:05:47;95763.38;;;2.59;100.00
12624;BME280;6377;42.836;23.998;2023-03-14T00:08:15;95719.00;;;2.39;100.00
12624;BME280;6377;42.836;23.998;2023-03-14T00:10:43;95752.81;;;2.61;100.00
12624;BME280;6377;42.836;23.998;2023-03-14T00:13:11;95757.22;;;2.60;100.00
12624;BME280;6377;42.836;23.998;2023-03-14T00:15:38;95756.63;;;2.57;100.00
12624;BME280;6377;42.836;23.998;2023-03-14T00:18:05;95721.03;;;2.35;100.00
12624;BME280;6377;42.836;23.998;2023-03-14T00:20:33;95758.09;;;2.50;100.00
12624;BME280;6377;42.836;23.998;2023-03-14T00:23:00;95736.25;;;2.30;100.00
12624;BME280;6377;42.836;23.998;2023-03-14T00:25:29;95762.19;;;2.43;100.00
12624;BME280;6377;42.836;23.998;2023-03-14T00:27:57;95819.41;;;2.76;100.00
12624;BME280;6377;42.836;23.998;2023-03-14T00:30:24;95761.94;;;2.46;100.00
12624;BME280;6377;42.836;23.998;2023-03-14T00:32:51;95746.13;;;2.47;100.00
12624;BME280;6377;42.836;23.998;2023-03-14T00:35:19;95753.09;;;2.58;100.00
12624;BME280;6377;42.836;23.998;2023-03-14T00:37:46;95792.53;;;2.85;100.00
12624;BME280;6377;42.836;23.998;2023-03-14T00:40:13;95672.09;;;2.28;100.00
12624;BME280;6377;42.836;23.998;2023-03-14T00:42:42;95748.28;;;2.83;100.00
12624;BME280;6377;42.836;23.998;2023-03-14T00:45:10;95638.19;;;2.28;100.00
12624;BME280;6377;42.836;23.998;2023-03-14T00:47:37;95725.28;;;2.77;100.00
12624;BME280;6377;42.836;23.998;2023-03-14T00:50:05;95716.44;;;2.69;99.17
12624;BME280;6377;42.836;23.998;2023-03-14T00:52:33;95752.59;;;2.94;100.00
12624;BME280;6377;42.836;23.998;2023-03-14T00:55:00;95699.88;;;2.59;100.00
12624;BME280;6377;42.836;23.998;2023-03-14T00:57:27;95701.81;;;2.57;100.00
12624;BME280;6377;42.836;23.998;2023-03-14T00:59:56;95613.50;;;2.11;100.00
12624;BME280;6377;42.836;23.998;2023-03-14T01:02:23;95670.31;;;2.49;100.00
12624;BME280;6377;42.836;23.998;2023-03-14T01:04:51;95727.75;;;2.79;100.00
12624;BME280;6377;42.836;23.998;2023-03-14T01:07:18;95682.09;;;2.43;100.00
12624;BME280;6377;42.836;23.998;2023-03-14T01:09:45;95639.63;;;2.00;100.00
12624;BME280;6377;42.836;23.998;2023-03-14T01:12:13;95684.38;;;2.37;100.00
12624;BME280;6377;42.836;23.998;2023-03-14T01:14:40;95676.13;;;2.32;100.00
12624;BME280;6377;42.836;23.998;2023-03-14T01:17:08;95679.53;;;2.32;100.00
12624;BME280;6377;42.836;23.998;2023-03-14T01:19:36;95719.16;;;2.58;100.00
12624;BME280;6377;42.836;23.998;2023-03-14T01:22:04;95496.03;;;1.09;100.00
12624;BME280;6377;42.836;23.998;2023-03-14T01:24:32;95637.34;;;2.06;100.00
12624;BME280;6377;42.836;23.998;2023-03-14T01:26:59;95675.22;;;2.21;100.00
12624;BME280;6377;42.836;23.998;2023-03-14T01:29:27;95697.44;;;2.16;100.00
12624;BME280;6377;42.836;23.998;2023-03-14T01:31:54;95726.22;;;2.46;100.00
12624;BME280;6377;42.836;23.998;2023-03-14T01:34:23;95687.91;;;2.26;100.00
12624;BME280;6377;42.836;23.998;2023-03-14T01:36:50;95683.44;;;2.38;100.00
12624;BME280;6377;42.836;23.998;2023-03-14T01:39:17;95701.50;;;2.50;100.00
12624;BME280;6377;42.836;23.998;2023-03-14T01:41:45;95686.91;;;2.48;100.00
12624;BME280;6377;42.836;23.998;2023-03-14T01:44:12;95678.91;;;2.40;100.00
12624;BME280;6377;42.836;23.998;2023-03-14T01:46:40;95699.59;;;2.52;100.00
12624;BME280;6377;42.836;23.998;2023-03-14T01:49:17;95694.25;;;2.54;100.00
12624;BME280;6377;42.836;23.998;2023-03-14T01:51:52;95658.16;;;2.17;100.00
12624;BME280;6377;42.836;23.998;2023-03-14T01:54:25;95645.84;;;2.19;100.00
12624;BME280;6377;42.836;23.998;2023-03-14T01:56:58;95517.13;;;1.38;100.00
12624;BME280;6377;42.836;23.998;2023-03-14T01:59:28;95603.44;;;1.86;100.00
12624;BME280;6377;42.836;23.998;2023-03-14T02:01:57;95629.28;;;1.89;100.00
12624;BME280;6377;42.836;23.998;2023-03-14T02:04:28;95662.34;;;1.88;100.00
12624;BME280;6377;42.836;23.998;2023-03-14T02:07:00;95633.88;;;1.76;100.00
12624;BME280;6377;42.836;23.998;2023-03-14T02:09:30;95694.75;;;2.27;100.00
12624;BME280;6377;42.836;23.998;2023-03-14T02:11:58;95666.69;;;1.99;100.00
12624;BME280;6377;42.836;23.998;2023-03-14T02:14:30;95628.69;;;1.64;100.00
12624;BME280;6377;42.836;23.998;2023-03-14T02:17:00;95617.75;;;1.70;100.00
12624;BME280;6377;42.836;23.998;2023-03-14T02:19:37;95657.72;;;1.92;100.00
12624;BME280;6377;42.836;23.998;2023-03-14T02:22:14;95641.94;;;1.93;100.00
12624;BME280;6377;42.836;23.998;2023-03-14T02:24:46;95630.63;;;1.83;100.00
12624;BME280;6377;42.836;23.998;2023-03-14T02:27:20;95688.00;;;2.24;100.00
12624;BME280;6377;42.836;23.998;2023-03-14T02:29:51;95697.03;;;2.41;100.00
12624;BME280;6377;42.836;23.998;2023-03-14T02:32:21;95693.22;;;2.45;100.00
12624;BME280;6377;42.836;23.998;2023-03-14T02:34:52;95660.66;;;2.19;100.00
12624;BME280;6377;42.836;23.998;2023-03-14T02:37:23;95674.06;;;2.35;100.00
12624;BME280;6377;42.836;23.998;2023-03-14T02:39:52;95635.84;;;2.04;100.00
12624;BME280;6377;42.836;23.998;2023-03-14T02:42:22;95649.38;;;2.18;100.00
12624;BME280;6377;42.836;23.998;2023-03-14T02:44:52;95668.59;;;2.17;100.00
12624;BME280;6377;42.836;23.998;2023-03-14T02:47:22;95660.34;;;2.12;100.00
12624;BME280;6377;42.836;23.998;2023-03-14T02:49:58;95671.09;;;2.19;100.00
12624;BME280;6377;42.836;23.998;2023-03-14T02:52:27;95665.88;;;2.19;100.00
12624;BME280;6377;42.836;23.998;2023-03-14T02:54:56;95629.75;;;1.94;100.00
12624;BME280;6377;42.836;23.998;2023-03-14T02:57:25;95649.31;;;2.09;100.00
12624;BME280;6377;42.836;23.998;2023-03-14T02:59:52;95667.22;;;2.13;100.00
12624;BME280;6377;42.836;23.998;2023-03-14T03:02:19;95662.69;;;2.15;100.00
12624;BME280;6377;42.836;23.998;2023-03-14T03:04:47;95628.59;;;2.07;100.00
12624;BME280;6377;42.836;23.998;2023-03-14T03:07:14;95654.34;;;2.21;100.00
12624;BME280;6377;42.836;23.998;2023-03-14T03:09:41;95631.88;;;2.09;100.00
12624;BME280;6377;42.836;23.998;2023-03-14T03:12:09;95628.84;;;2.04;100.00
12624;BME280;6377;42.836;23.998;2023-03-14T03:14:38;95478.63;;;1.09;100.00
12624;BME280;6377;42.836;23.998;2023-03-14T03:17:06;95604.34;;;1.96;100.00
12624;BME280;6377;42.836;23.998;2023-03-14T03:19:33;95673.00;;;2.38;100.00
12624;BME280;6377;42.836;23.998;2023-03-14T03:22:01;95628.84;;;2.04;100.00
12624;BME280;6377;42.836;23.998;2023-03-14T03:24:28;95568.03;;;1.62;100.00
12624;BME280;6377;42.836;23.998;2023-03-14T03:26:55;95513.34;;;1.31;100.00
12624;BME280;6377;42.836;23.998;2023-03-14T03:29:23;95675.16;;;2.33;100.00
12624;BME280;6377;42.836;23.998;2023-03-14T03:31:52;95518.53;;;1.10;100.00
12624;BME280;6377;42.836;23.998;2023-03-14T03:34:20;95601.50;;;1.78;100.00
12624;BME280;6377;42.836;23.998;2023-03-14T03:36:47;95652.81;;;1.98;100.00
12624;BME280;6377;42.836;23.998;2023-03-14T03:39:14;95633.81;;;1.87;100.00
12624;BME280;6377;42.836;23.998;2023-03-14T03:41:42;95682.34;;;2.19;100.00
12624;BME280;6377;42.836;23.998;2023-03-14T03:44:09;95659.97;;;1.96;100.00
12624;BME280;6377;42.836;23.998;2023-03-14T03:46:38;95689.47;;;2.17;100.00
12624;BME280;6377;42.836;23.998;2023-03-14T03:49:07;95666.31;;;2.03;100.00
12624;BME280;6377;42.836;23.998;2023-03-14T03:51:34;95639.47;;;1.92;100.00
12624;BME280;6377;42.836;23.998;2023-03-14T03:54:01;95660.16;;;2.04;100.00
12624;BME280;6377;42.836;23.998;2023-03-14T03:56:29;95633.72;;;1.77;100.00
12624;BME280;6377;42.836;23.998;2023-03-14T03:58:57;95631.00;;;1.79;100.00
12624;BME280;6377;42.836;23.998;2023-03-14T04:01:24;95647.34;;;1.81;100.00
12624;BME280;6377;42.836;23.998;2023-03-14T04:03:52;95655.28;;;1.79;100.00
12624;BME280;6377;42.836;23.998;2023-03-14T04:06:21;95626.06;;;1.64;100.00
12624;BME280;6377;42.836;23.998;2023-03-14T04:08:48;95629.47;;;1.76;100.00
12624;BME280;6377;42.836;23.998;2023-03-14T04:11:16;95626.59;;;1.79;100.00
12624;BME280;6377;42.836;23.998;2023-03-14T04:13:44;95603.91;;;1.38;100.00
12624;BME280;6377;42.836;23.998;2023-03-14T04:16:15;95556.66;;;1.11;100.00
12624;BME280;6377;42.836;23.998;2023-03-14T04:18:43;95620.72;;;1.45;100.00
12624;BME280;6377;42.836;23.998;2023-03-14T04:21:11;95627.50;;;1.37;100.00
12624;BME280;6377;42.836;23.998;2023-03-14T04:23:40;95643.47;;;1.32;100.00
12624;BME280;6377;42.836;23.998;2023-03-14T04:26:10;95629.13;;;1.49;100.00
12624;BME280;6377;42.836;23.998;2023-03-14T04:28:37;95622.72;;;1.42;100.00
12624;BME280;6377;42.836;23.998;2023-03-14T04:31:09;95614.09;;;1.41;100.00
12624;BME280;6377;42.836;23.998;2023-03-14T04:33:36;95643.13;;;1.68;100.00
12624;BME280;6377;42.836;23.998;2023-03-14T04:36:07;95591.13;;;1.35;100.00
12624;BME280;6377;42.836;23.998;2023-03-14T04:38:35;95603.50;;;1.54;100.00
12624;BME280;6377;42.836;23.998;2023-03-14T04:41:04;95571.84;;;1.38;100.00
12624;BME280;6377;42.836;23.998;2023-03-14T04:43:33;95590.47;;;1.22;100.00
12624;BME280;6377;42.836;23.998;2023-03-14T04:46:00;95621.22;;;1.39;100.00
12624;BME280;6377;42.836;23.998;2023-03-14T04:48:28;95599.81;;;1.25;100.00
12624;BME280;6377;42.836;23.998;2023-03-14T04:50:56;95665.13;;;1.55;100.00
12624;BME280;6377;42.836;23.998;2023-03-14T04:53:24;95618.78;;;1.16;100.00
12624;BME280;6377;42.836;23.998;2023-03-14T04:55:56;95648.88;;;1.51;100.00
12624;BME280;6377;42.836;23.998;2023-03-14T04:58:28;95602.78;;;1.31;100.00
12624;BME280;6377;42.836;23.998;2023-03-14T05:00:55;95608.22;;;1.28;100.00
12624;BME280;6377;42.836;23.998;2023-03-14T05:03:23;95548.03;;;1.10;100.00
12624;BME280;6377;42.836;23.998;2023-03-14T05:05:50;95595.47;;;1.46;100.00
12624;BME280;6377;42.836;23.998;2023-03-14T05:08:17;95633.38;;;1.70;100.00
12624;BME280;6377;42.836;23.998;2023-03-14T05:10:44;95613.31;;;1.61;100.00
12624;BME280;6377;42.836;23.998;2023-03-14T05:13:19;95605.84;;;1.57;100.00
12624;BME280;6377;42.836;23.998;2023-03-14T05:15:48;95624.88;;;1.68;100.00
12624;BME280;6377;42.836;23.998;2023-03-14T05:18:16;95594.84;;;1.53;100.00
12624;BME280;6377;42.836;23.998;2023-03-14T05:20:43;95564.97;;;1.37;100.00
12624;BME280;6377;42.836;23.998;2023-03-14T05:23:10;95593.00;;;1.65;100.00
12624;BME280;6377;42.836;23.998;2023-03-14T05:25:38;95641.56;;;1.98;100.00
12624;BME280;6377;42.836;23.998;2023-03-14T05:28:05;95576.09;;;1.59;100.00
12624;BME280;6377;42.836;23.998;2023-03-14T05:30:32;95619.94;;;1.86;100.00
12624;BME280;6377;42.836;23.998;2023-03-14T05:33:04;95653.44;;;2.11;100.00
12624;BME280;6377;42.836;23.998;2023-03-14T05:35:31;95586.88;;;1.87;100.00
12624;BME280;6377;42.836;23.998;2023-03-14T05:38:02;95616.00;;;1.92;100.00
12624;BME280;6377;42.836;23.998;2023-03-14T05:40:29;95566.13;;;1.85;100.00
12624;BME280;6377;42.836;23.998;2023-03-14T05:42:57;95590.06;;;1.90;100.00
12624;BME280;6377;42.836;23.998;2023-03-14T05:45:27;95575.75;;;1.85;100.00
12624;BME280;6377;42.836;23.998;2023-03-14T05:47:55;95590.34;;;1.97;100.00
12624;BME280;6377;42.836;23.998;2023-03-14T05:50:25;95548.59;;;1.66;100.00
12624;BME280;6377;42.836;23.998;2023-03-14T05:52:53;95462.94;;;1.21;100.00
12624;BME280;6377;42.836;23.998;2023-03-14T05:55:20;95595.56;;;1.97;100.00
12624;BME280;6377;42.836;23.998;2023-03-14T05:57:48;95573.31;;;1.93;100.00
12624;BME280;6377;42.836;23.998;2023-03-14T06:00:16;95613.25;;;2.14;100.00
12624;BME280;6377;42.836;23.998;2023-03-14T06:02:43;95600.25;;;2.03;100.00
12624;BME280;6377;42.836;23.998;2023-03-14T06:05:11;95570.78;;;2.02;100.00
12624;BME280;6377;42.836;23.998;2023-03-14T06:07:40;95504.44;;;1.75;100.00
12624;BME280;6377;42.836;23.998;2023-03-14T06:10:08;95487.09;;;1.85;98.04
12624;BME280;6377;42.836;23.998;2023-03-14T06:12:35;95509.72;;;2.14;100.00
12624;BME280;6377;42.836;23.998;2023-03-14T06:15:03;95460.44;;;2.21;97.32
12624;BME280;6377;42.836;23.998;2023-03-14T06:17:30;95422.56;;;2.17;95.84
12624;BME280;6377;42.836;23.998;2023-03-14T06:19:57;95524.50;;;3.03;90.57
12624;BME280;6377;42.836;23.998;2023-03-14T06:22:24;95537.72;;;3.30;88.24
12624;BME280;6377;42.836;23.998;2023-03-14T06:24:53;95552.44;;;3.60;88.04
12624;BME280;6377;42.836;23.998;2023-03-14T06:27:21;95540.16;;;3.70;80.53
12624;BME280;6377;42.836;23.998;2023-03-14T06:29:48;95557.91;;;3.95;83.45
12624;BME280;6377;42.836;23.998;2023-03-14T06:32:19;95581.22;;;4.26;80.12
12624;BME280;6377;42.836;23.998;2023-03-14T06:34:46;95586.97;;;4.48;82.65
12624;BME280;6377;42.836;23.998;2023-03-14T06:37:13;95559.78;;;4.49;81.11
12624;BME280;6377;42.836;23.998;2023-03-14T06:39:42;95497.59;;;4.34;77.55
12624;BME280;6377;42.836;23.998;2023-03-14T06:42:11;95518.59;;;4.51;76.17
12624;BME280;6377;42.836;23.998;2023-03-14T06:44:38;95420.59;;;4.00;75.81
12624;BME280;6377;42.836;23.998;2023-03-14T06:47:05;95564.47;;;5.10;76.77
12624;BME280;6377;42.836;23.998;2023-03-14T06:49:32;95489.75;;;4.79;74.97
12624;BME280;6377;42.836;23.998;2023-03-14T06:52:00;95557.59;;;5.44;76.08
12624;BME280;6377;42.836;23.998;2023-03-14T06:54:27;95573.25;;;5.72;66.09
12624;BME280;6377;42.836;23.998;2023-03-14T06:56:54;95566.53;;;5.87;62.94
12624;BME280;6377;42.836;23.998;2023-03-14T06:59:23;95546.78;;;5.83;59.95
12624;BME280;6377;42.836;23.998;2023-03-14T07:01:50;95570.59;;;6.25;62.21
12624;BME280;6377;42.836;23.998;2023-03-14T07:04:17;95432.72;;;5.69;62.37
12624;BME280;6377;42.836;23.998;2023-03-14T07:06:45;95540.94;;;6.66;57.15
12624;BME280;6377;42.836;23.998;2023-03-14T07:09:13;95540.00;;;6.75;54.57
12624;BME280;6377;42.836;23.998;2023-03-14T07:11:42;95537.09;;;6.94;54.96
12624;BME280;6377;42.836;23.998;2023-03-14T07:14:09;95495.84;;;6.95;51.02
12624;BME280;6377;42.836;23.998;2023-03-14T07:16:38;95499.97;;;7.13;50.33
12624;BME280;6377;42.836;23.998;2023-03-14T07:19:05;95529.34;;;7.43;49.38
12624;BME280;6377;42.836;23.998;2023-03-14T07:21:32;95527.84;;;7.56;46.69
12624;BME280;6377;42.836;23.998;2023-03-14T07:24:00;95520.78;;;7.73;46.84
12624;BME280;6377;42.836;23.998;2023-03-14T07:26:27;95430.81;;;7.37;46.82
12624;BME280;6377;42.836;23.998;2023-03-14T07:28:54;95525.56;;;8.10;47.39
12624;BME280;6377;42.836;23.998;2023-03-14T07:31:22;95517.31;;;8.29;47.02
12624;BME280;6377;42.836;23.998;2023-03-14T07:33:51;95456.72;;;8.13;46.55
12624;BME280;6377;42.836;23.998;2023-03-14T07:36:18;95481.88;;;8.39;45.18
12624;BME280;6377;42.836;23.998;2023-03-14T07:38:45;95512.09;;;8.68;45.23
12624;BME280;6377;42.836;23.998;2023-03-14T07:41:13;95506.06;;;8.90;43.69
12624;BME280;6377;42.836;23.998;2023-03-14T07:43:40;95507.09;;;9.12;43.10
12624;BME280;6377;42.836;23.998;2023-03-14T07:46:07;95424.63;;;8.87;42.44
12624;BME280;6377;42.836;23.998;2023-03-14T07:48:35;95507.47;;;9.54;40.87
12624;BME280;6377;42.836;23.998;2023-03-14T07:51:03;95490.44;;;9.65;41.73
12624;BME280;6377;42.836;23.998;2023-03-14T07:53:30;95494.03;;;9.86;42.54
12624;BME280;6377;42.836;23.998;2023-03-14T07:55:58;95483.53;;;10.01;42.48
12624;BME280;6377;42.836;23.998;2023-03-14T07:58:25;95380.00;;;9.68;40.38
12624;BME280;6377;42.836;23.998;2023-03-14T08:00:52;95468.19;;;10.34;39.27
12624;BME280;6377;42.836;23.998;2023-03-14T08:03:19;95458.16;;;10.44;37.99
12624;BME280;6377;42.836;23.998;2023-03-14T08:05:47;95457.53;;;10.71;38.86
12624;BME280;6377;42.836;23.998;2023-03-14T08:08:17;95457.28;;;10.87;38.06
12624;BME280;6377;42.836;23.998;2023-03-14T08:10:44;95357.25;;;10.40;36.69
12624;BME280;6377;42.836;23.998;2023-03-14T08:13:12;95454.59;;;11.16;36.23
12624;BME280;6377;42.836;23.998;2023-03-14T08:15:39;95453.16;;;11.35;36.33
12624;BME280;6377;42.836;23.998;2023-03-14T08:18:06;95440.56;;;11.58;34.95
12624;BME280;6377;42.836;23.998;2023-03-14T08:20:33;95441.50;;;11.72;33.83
12624;BME280;6377;42.836;23.998;2023-03-14T08:23:02;95435.81;;;11.75;33.83
12624;BME280;6377;42.836;23.998;2023-03-14T08:25:30;95436.63;;;11.97;34.81
12624;BME280;6377;42.836;23.998;2023-03-14T08:27:58;95441.06;;;12.17;34.88
12624;BME280;6377;42.836;23.998;2023-03-14T08:30:25;95430.91;;;12.27;32.81
12624;BME280;6377;42.836;23.998;2023-03-14T08:32:52;95433.66;;;12.41;32.79
12624;BME280;6377;42.836;23.998;2023-03-14T08:35:19;95432.16;;;12.59;35.08
12624;BME280;6377;42.836;23.998;2023-03-14T08:37:46;95431.59;;;12.77;35.49
12624;BME280;6377;42.836;23.998;2023-03-14T08:40:14;95432.47;;;12.90;34.49
12624;BME280;6377;42.836;23.998;2023-03-14T08:42:44;95426.66;;;13.08;33.06
12624;BME280;6377;42.836;23.998;2023-03-14T08:45:13;95414.00;;;13.17;31.17
12624;BME280;6377;42.836;23.998;2023-03-14T08:47:40;95416.88;;;13.22;31.29
12624;BME280;6377;42.836;23.998;2023-03-14T08:50:09;95313.63;;;12.79;30.49
12624;BME280;6377;42.836;23.998;2023-03-14T08:52:36;95416.31;;;13.59;27.79
12624;BME280;6377;42.836;23.998;2023-03-14T08:55:07;95412.69;;;13.73;28.43
12624;BME280;6377;42.836;23.998;2023-03-14T08:57:34;95412.06;;;13.84;28.24
12624;BME280;6377;42.836;23.998;2023-03-14T09:00:04;95404.47;;;14.01;27.75
12624;BME280;6377;42.836;23.998;2023-03-14T09:02:35;95393.63;;;14.09;28.94
12624;BME280;6377;42.836;23.998;2023-03-14T09:05:03;95395.25;;;14.36;27.63
12624;BME280;6377;42.836;23.998;2023-03-14T09:07:30;95395.19;;;14.56;29.02
12624;BME280;6377;42.836;23.998;2023-03-14T09:09:57;95378.97;;;14.71;29.72
12624;BME280;6377;42.836;23.998;2023-03-14T09:12:25;95382.00;;;14.81;28.49
12624;BME280;6377;42.836;23.998;2023-03-14T09:14:52;95383.13;;;15.04;28.43
12624;BME280;6377;42.836;23.998;2023-03-14T09:17:20;95379.81;;;15.09;28.32
12624;BME280;6377;42.836;23.998;2023-03-14T09:19:48;95373.34;;;15.30;28.36
12624;BME280;6377;42.836;23.998;2023-03-14T09:22:15;95369.34;;;15.52;27.72
12624;BME280;6377;42.836;23.998;2023-03-14T09:24:42;95372.03;;;15.77;29.23
12624;BME280;6377;42.836;23.998;2023-03-14T09:27:09;95369.22;;;15.96;28.73
12624;BME280;6377;42.836;23.998;2023-03-14T09:29:37;95359.81;;;16.12;28.53
12624;BME280;6377;42.836;23.998;2023-03-14T09:32:04;95357.31;;;16.35;28.50
12624;BME280;6377;42.836;23.998;2023-03-14T09:34:32;95317.72;;;16.32;27.67
12624;BME280;6377;42.836;23.998;2023-03-14T09:37:00;95349.47;;;16.76;28.23
12624;BME280;6377;42.836;23.998;2023-03-14T09:39:27;95346.34;;;16.98;28.33
12624;BME280;6377;42.836;23.998;2023-03-14T09:41:56;95362.22;;;17.11;27.95
12624;BME280;6377;42.836;23.998;2023-03-14T09:44:28;95342.50;;;17.23;28.06
12624;BME280;6377;42.836;23.998;2023-03-14T09:47:00;95336.88;;;17.43;28.05
12624;BME280;6377;42.836;23.998;2023-03-14T09:49:29;95330.31;;;17.57;27.16
12624;BME280;6377;42.836;23.998;2023-03-14T09:52:00;95325.91;;;17.63;27.29
12624;BME280;6377;42.836;23.998;2023-03-14T09:54:34;95314.75;;;17.66;27.00
12624;BME280;6377;42.836;23.998;2023-03-14T09:57:03;95320.22;;;17.82;27.06
12624;BME280;6377;42.836;23.998;2023-03-14T09:59:30;95292.41;;;17.60;26.04
12624;BME280;6377;42.836;23.998;2023-03-14T10:02:01;95307.66;;;17.71;26.87
12624;BME280;6377;42.836;23.998;2023-03-14T10:04:28;95296.03;;;17.77;26.74
12624;BME280;6377;42.836;23.998;2023-03-14T10:06:59;95274.72;;;18.06;25.68
12624;BME280;6377;42.836;23.998;2023-03-14T10:09:26;95280.16;;;18.57;25.33
12624;BME280;6377;42.836;23.998;2023-03-14T10:11:56;95272.81;;;18.92;26.27
12624;BME280;6377;42.836;23.998;2023-03-14T10:14:30;95261.09;;;19.27;23.94
12624;BME280;6377;42.836;23.998;2023-03-14T10:17:06;95099.34;;;18.15;23.03
12624;BME280;6377;42.836;23.998;2023-03-14T10:19:35;95258.88;;;19.07;22.89
12624;BME280;6377;42.836;23.998;2023-03-14T10:22:05;95262.69;;;19.39;22.81
12624;BME280;6377;42.836;23.998;2023-03-14T10:24:34;95257.31;;;19.39;22.19
12624;BME280;6377;42.836;23.998;2023-03-14T10:27:03;95251.25;;;19.61;22.02
12624;BME280;6377;42.836;23.998;2023-03-14T10:29:32;95261.97;;;19.61;22.03
12624;BME280;6377;42.836;23.998;2023-03-14T10:32:01;95245.69;;;19.84;21.89
12624;BME280;6377;42.836;23.998;2023-03-14T10:34:30;95230.09;;;20.02;21.67
12624;BME280;6377;42.836;23.998;2023-03-14T10:36:59;95229.13;;;20.08;21.62
12624;BME280;6377;42.836;23.998;2023-03-14T10:39:41;95223.09;;;19.63;21.31
12624;BME280;6377;42.836;23.998;2023-03-14T10:42:15;95208.41;;;19.87;22.31
12624;BME280;6377;42.836;23.998;2023-03-14T10:44:44;95219.38;;;20.02;21.55
12624;BME280;6377;42.836;23.998;2023-03-14T10:47:18;95214.25;;;20.01;21.59
12624;BME280;6377;42.836;23.998;2023-03-14T10:49:46;95116.16;;;19.00;21.41
12624;BME280;6377;42.836;23.998;2023-03-14T10:52:20;95165.63;;;19.59;21.62
12624;BME280;6377;42.836;23.998;2023-03-14T10:54:54;95125.44;;;19.42;21.97
12624;BME280;6377;42.836;23.998;2023-03-14T10:57:21;95192.63;;;20.07;21.23
12624;BME280;6377;42.836;23.998;2023-03-14T10:59:48;95190.03;;;19.96;21.43
12624;BME280;6377;42.836;23.998;2023-03-14T11:02:30;95026.78;;;19.11;21.51
12624;BME280;6377;42.836;23.998;2023-03-14T11:05:08;95175.06;;;20.22;21.24
12624;BME280;6377;42.836;23.998;2023-03-14T11:07:39;95175.09;;;20.05;21.76
12624;BME280;6377;42.836;23.998;2023-03-14T11:10:18;95168.16;;;19.87;21.42
12624;BME280;6377;42.836;23.998;2023-03-14T11:12:59;95169.31;;;19.91;21.73
12624;BME280;6377;42.836;23.998;2023-03-14T11:15:34;95161.59;;;20.17;21.34
12624;BME280;6377;42.836;23.998;2023-03-14T11:18:22;95158.22;;;20.48;21.05
12624;BME280;6377;42.836;23.998;2023-03-14T11:20:57;95146.78;;;20.57;20.99
12624;BME280;6377;42.836;23.998;2023-03-14T11:23:32;95146.03;;;20.19;20.87
12624;BME280;6377;42.836;23.998;2023-03-14T11:26:17;95141.53;;;20.02;20.91
12624;BME280;6377;42.836;23.998;2023-03-14T11:28:57;95140.66;;;19.75;21.46
12624;BME280;6377;42.836;23.998;2023-03-14T11:31:29;95127.59;;;20.05;21.72
12624;BME280;6377;42.836;23.998;2023-03-14T11:34:01;95125.81;;;20.33;21.40
12624;BME280;6377;42.836;23.998;2023-03-14T11:36:33;95107.06;;;20.38;21.31
12624;BME280;6377;42.836;23.998;2023-03-14T11:39:03;95120.81;;;20.68;21.75
12624;BME280;6377;42.836;23.998;2023-03-14T11:41:39;95116.47;;;20.40;21.23
12624;BME280;6377;42.836;23.998;2023-03-14T11:44:14;95107.69;;;20.45;21.60
12624;BME280;6377;42.836;23.998;2023-03-14T11:46:49;95073.31;;;20.47;21.37
12624;BME280;6377;42.836;23.998;2023-03-14T11:49:26;95095.75;;;20.62;21.90
12624;BME280;6377;42.836;23.998;2023-03-14T11:51:56;95095.28;;;20.71;21.63
12624;BME280;6377;42.836;23.998;2023-03-14T11:54:34;95095.97;;;20.07;21.51
12624;BME280;6377;42.836;23.998;2023-03-14T11:57:14;95085.03;;;19.71;21.29
12624;BME280;6377;42.836;23.998;2023-03-14T11:59:47;95082.97;;;19.56;22.06
12624;BME280;6377;42.836;23.998;2023-03-14T12:02:22;95080.72;;;19.91;22.50
12624;BME280;6377;42.836;23.998;2023-03-14T12:05:00;95043.84;;;19.82;21.73
12624;BME280;6377;42.836;23.998;2023-03-14T12:07:37;95067.34;;;19.70;22.06
12624;BME280;6377;42.836;23.998;2023-03-14T12:10:07;95060.81;;;19.87;22.01
12624;BME280;6377;42.836;23.998;2023-03-14T12:12:36;95059.75;;;20.10;21.97
12624;BME280;6377;42.836;23.998;2023-03-14T12:15:05;95065.94;;;19.89;22.19
12624;BME280;6377;42.836;23.998;2023-03-14T12:17:42;95046.03;;;19.41;21.76
12624;BME280;6377;42.836;23.998;2023-03-14T12:20:17;95047.47;;;19.32;22.47
12624;BME280;6377;42.836;23.998;2023-03-14T12:22:48;95051.84;;;19.00;22.41
12624;BME280;6377;42.836;23.998;2023-03-14T12:25:17;94990.16;;;18.78;22.82
12624;BME280;6377;42.836;23.998;2023-03-14T12:28:04;95010.31;;;19.02;22.46
12624;BME280;6377;42.836;23.998;2023-03-14T12:30:41;95030.91;;;19.52;22.29
12624;BME280;6377;42.836;23.998;2023-03-14T12:33:20;95030.38;;;19.77;22.15
12624;BME280;6377;42.836;23.998;2023-03-14T12:35:49;95019.53;;;19.67;22.14
12624;BME280;6377;42.836;23.998;2023-03-14T12:38:21;95014.63;;;19.85;21.58
12624;BME280;6377;42.836;23.998;2023-03-14T12:40:56;95015.81;;;19.94;21.95
12624;BME280;6377;42.836;23.998;2023-03-14T12:43:28;95005.31;;;20.41;22.62
12624;BME280;6377;42.836;23.998;2023-03-14T12:46:15;94984.31;;;20.38;21.65
12624;BME280;6377;42.836;23.998;2023-03-14T12:48:47;94985.69;;;20.41;21.58
12624;BME280;6377;42.836;23.998;2023-03-14T12:51:16;94990.59;;;20.81;21.94
12624;BME280;6377;42.836;23.998;2023-03-14T12:54:10;94980.44;;;20.93;21.20
12624;BME280;6377;42.836;23.998;2023-03-14T12:56:52;94978.31;;;20.95;21.47
12624;BME280;6377;42.836;23.998;2023-03-14T12:59:30;94947.63;;;20.91;21.63
12624;BME280;6377;42.836;23.998;2023-03-14T13:02:01;94970.03;;;21.01;20.60
12624;BME280;6377;42.836;23.998;2023-03-14T13:04:33;94975.22;;;21.13;21.88
12624;BME280;6377;42.836;23.998;2023-03-14T13:07:02;94972.72;;;21.06;20.86
12624;BME280;6377;42.836;23.998;2023-03-14T13:09:53;94970.63;;;20.72;21.15
12624;BME280;6377;42.836;23.998;2023-03-14T13:12:30;94930.97;;;20.52;21.41
12624;BME280;6377;42.836;23.998;2023-03-14T13:15:11;94950.47;;;20.74;21.18